EHRD/RTM METAR and TAF weather

Enter ICAO airport designator
Station Type Date Time Source
EHRD METAR 2019/04/19 22:25 UTC NOAA

EHRD 192225Z AUTO VRB02KT 9999 NCD 12/07 Q1029 NOSIG


Station Type Date Time Source
EHRD Decoded METAR 2019/04/19 22:25 UTC NOAA

Rotterdam Airport Zestienhoven, Netherlands (EHRD) 51-57N 004-27E -4M
Apr 19, 2019 - 06:25 PM EDT / 2019.04.19 2225 UTC
Wind: Variable at 2 MPH (2 KT):0
Visibility: greater than 7 mile(s):0
Temperature: 53 F (12 C)
Dew Point: 44 F (7 C)
Relative Humidity: 71%
Pressure (altimeter): 30.39 in. Hg (1029 hPa)
ob: EHRD 192225Z AUTO VRB02KT 9999 NCD 12/07 Q1029 NOSIG
cycle: 22

Station Type Date Time Source
EHRD TAF 2019/04/19 18:27 UTC NOAA

TAF EHRD 191650Z 1918/2024 06009KT CAVOK

Example: see airport list